• Join FlightAware (Why Join?)
  • Login
  • US Flag 
12:46PM EDT


 

Airport Tracker/Info


-or-


 

Live Flight TrackerFlight Track Log ✈ CPT7773 ✈ 18-Oct-2013 ✈ KCOD - KCPR

Flight Track Log - Related Links

Times and Time Zones

All times are in EDT time to prevent confusion due to time zone crossing. See the CPT7773 flight status page for this flight to view local times or setup timezone preferences in your user account.

Time Position Orientation Groundspeed Altitude Reporting Facility
EDT Latitude Longitude Course Direction KTS MPH feet Rate Location/Type
08:02PM 44.5372 -108.9708 133° Southeast 130 150 6,400  Level Salt Lake Center
08:03PM 44.5250 -108.9214 109° East 136 157 7,500 960 Climbing Salt Lake Center
08:04PM 44.5150 -108.8653 104° East 141 162 8,500 960 Climbing Salt Lake Center
08:05PM 44.5042 -108.8064 104° East 149 171 9,500 1,020 Climbing Salt Lake Center
08:06PM 44.4861 -108.7508 114° Southeast 154 177 10,600 660 Climbing Salt Lake Center
08:07PM 44.4458 -108.6931 134° Southeast 164 189 10,900 180 Climbing Salt Lake Center
08:08PM 44.3205 -108.6941 133° Southeast  Level Estimated
08:08PM 44.4097 -108.6375 132° Southeast 178 205 11,000  Level Salt Lake Center
08:10PM 44.3739 -108.5828 132° Southeast 186 214 11,000  Level Salt Lake Center
08:11PM 44.3383 -108.5278 132° Southeast 189 217 11,000  Level Salt Lake Center
08:12PM 44.3028 -108.4722 132° Southeast 191 220 11,000  Level Salt Lake Center
08:13PM 44.2658 -108.4164 133° Southeast 193 222 11,000  Level Salt Lake Center
08:14PM 44.2222 -108.3494 132° Southeast 195 224 11,000  Level Salt Lake Center
08:15PM 44.1861 -108.2942 132° Southeast 195 224 11,000  Level Salt Lake Center
08:16PM 44.1486 -108.2367 132° Southeast 197 227 11,000  Level Salt Lake Center
08:17PM 44.1125 -108.1792 131° Southeast 198 228 11,000  Level Salt Lake Center
08:18PM 44.0761 -108.1250 133° Southeast 196 226 11,000  Level Salt Lake Center
08:19PM 44.0392 -108.0683 132° Southeast 196 226 11,000  Level Salt Lake Center
08:20PM 44.0019 -108.0119 133° Southeast 198 228 11,100  Climbing Salt Lake Center
08:21PM 43.9589 -107.9450 132° Southeast 197 227 11,100 -60 Level Salt Lake Center
08:22PM 43.9269 -107.8856 127° Southeast 194 223 11,000 -60 Descending Salt Lake Center
08:23PM 43.8961 -107.8244 125° Southeast 193 222 11,000  Level Salt Lake Center
08:24PM 43.8658 -107.7622 124° Southeast 194 223 11,100  Climbing Salt Lake Center
08:25PM 43.8339 -107.7017 126° Southeast 195 224 11,000 -60 Descending Salt Lake Center
08:26PM 43.8025 -107.6406 125° Southeast 195 224 11,000  Level Salt Lake Center
08:27PM 43.7717 -107.5817 126° Southeast 193 222 11,000  Level Salt Lake Center
08:28PM 43.7328 -107.5083 126° Southeast 195 224 11,000  Level Salt Lake Center
08:29PM 43.7019 -107.4458 124° Southeast 196 226 11,000  Level Salt Lake Center
08:30PM 43.6694 -107.3850 126° Southeast 197 227 11,000  Level Salt Lake Center
08:31PM 43.6381 -107.3236 125° Southeast 196 226 11,000  Level Salt Lake Center
08:32PM 43.6064 -107.2611 125° Southeast 197 227 11,000  Level Salt Lake Center
08:33PM 43.5733 -107.1983 126° Southeast 199 229 11,000  Level Salt Lake Center
08:34PM 43.5356 -107.1231 125° Southeast 199 229 11,000  Level Salt Lake Center
08:35PM 43.5025 -107.0606 126° Southeast 201 231 11,100  Climbing Salt Lake Center
08:36PM 43.4692 -106.9989 127° Southeast 202 232 11,000 -60 Descending Salt Lake Center
08:37PM 43.4350 -106.9361 127° Southeast 205 236 11,000  Level Salt Lake Center
08:38PM 43.3922 -106.8828 138° Southeast 199 229 11,000  Level Salt Lake Center
08:39PM 43.3458 -106.8453 150° Southeast 201 231 11,000 -300 Level Salt Lake Center
08:40PM 43.2903 -106.7989 149° Southeast 207 238 10,500 -480 Descending Salt Lake Center
08:41PM 43.2425 -106.7575 148° Southeast 211 243 10,100 -420 Descending Salt Lake Center
08:42PM 43.1878 -106.7083 147° Southeast 211 243 9,700 -540 Descending Salt Lake Center
08:43PM 43.1436 -106.6639 144° Southeast 208 239 9,000 -540 Descending Salt Lake Center
08:44PM 43.0997 -106.6206 144° Southeast 206 237 8,600 -540 Descending Salt Lake Center
08:46PM 43.0492 -106.5711 144° Southeast 203 234 8,000 -600 Descending Salt Lake Center
08:47PM 42.9861 -106.5083 144° Southeast 197 227 7,200 -540 Descending Denver Center
08:48PM 42.9531 -106.4728 142° Southeast 195 224 6,800 -420 Descending Denver Center